createdAt,value
2022-12-29T00:00:14.771Z,99.90
2022-12-29T00:02:41.759Z,99.90
2022-12-29T00:05:08.846Z,99.90
2022-12-29T00:07:35.864Z,99.90
2022-12-29T00:10:02.688Z,99.90
2022-12-29T00:12:30.759Z,99.90
2022-12-29T00:14:57.483Z,99.90
2022-12-29T00:17:24.268Z,99.90
2022-12-29T00:19:50.997Z,99.90
2022-12-29T00:22:17.750Z,99.90
2022-12-29T00:24:45.235Z,99.90
2022-12-29T00:27:13.506Z,99.90
2022-12-29T00:29:42.298Z,99.90
2022-12-29T00:32:10.599Z,99.90
2022-12-29T00:34:37.459Z,99.90
2022-12-29T00:37:04.169Z,99.90
2022-12-29T00:39:30.863Z,99.90
2022-12-29T00:42:03.261Z,99.90
2022-12-29T00:44:30.026Z,99.90
2022-12-29T00:46:58.131Z,99.90
2022-12-29T00:49:24.857Z,99.90
2022-12-29T00:51:51.860Z,99.90
2022-12-29T00:54:19.246Z,99.80
2022-12-29T00:56:47.114Z,99.90
2022-12-29T00:59:14.019Z,99.90
2022-12-29T01:01:41.315Z,99.90
2022-12-29T01:04:10.723Z,99.90
2022-12-29T01:06:39.096Z,99.70
2022-12-29T01:09:06.530Z,99.60
2022-12-29T01:11:33.225Z,99.90
2022-12-29T01:14:00.105Z,99.80
2022-12-29T01:16:26.892Z,99.90
2022-12-29T01:18:53.627Z,99.50
2022-12-29T01:21:22.028Z,99.50
2022-12-29T01:23:48.861Z,99.40
2022-12-29T01:26:17.338Z,99.30
2022-12-29T01:28:45.262Z,99.40
2022-12-29T01:31:13.946Z,99.60
2022-12-29T01:33:41.266Z,99.40
2022-12-29T01:36:10.574Z,99.20
2022-12-29T01:38:39.336Z,98.80
2022-12-29T01:41:07.783Z,98.90
2022-12-29T01:43:45.210Z,98.90
2022-12-29T01:46:23.921Z,98.50
2022-12-29T01:48:53.643Z,99.10
2022-12-29T01:51:22.499Z,99.00
2022-12-29T01:53:51.126Z,98.70
2022-12-29T01:56:20.599Z,99.20
2022-12-29T01:58:54.716Z,99.30
2022-12-29T02:01:22.250Z,98.90
2022-12-29T02:03:50.301Z,98.70
2022-12-29T02:06:20.801Z,98.90
2022-12-29T02:08:51.103Z,98.90
2022-12-29T02:11:18.088Z,98.90
2022-12-29T02:13:45.095Z,98.90
2022-12-29T02:16:27.549Z,98.90
2022-12-29T02:19:08.842Z,98.90
2022-12-29T02:21:59.184Z,98.90
2022-12-29T02:24:52.146Z,98.90
2022-12-29T02:27:41.208Z,98.70
2022-12-29T02:30:16.452Z,98.60
2022-12-29T02:32:53.915Z,98.60
2022-12-29T02:35:29.090Z,98.60
2022-12-29T02:38:03.632Z,98.50
2022-12-29T02:40:38.149Z,98.40
2022-12-29T02:43:19.825Z,98.40
2022-12-29T02:45:52.561Z,98.40
2022-12-29T02:48:26.400Z,98.40
2022-12-29T02:51:00.179Z,98.30
2022-12-29T02:53:29.062Z,98.30
2022-12-29T02:55:55.796Z,98.20
2022-12-29T02:58:23.887Z,98.20
2022-12-29T03:01:11.623Z,98.20
2022-12-29T03:03:50.385Z,98.20
2022-12-29T03:06:32.299Z,98.10
2022-12-29T03:09:18.918Z,98.10
2022-12-29T03:11:54.020Z,98.10
2022-12-29T03:14:31.967Z,98.10
2022-12-29T03:17:03.718Z,98.10
2022-12-29T03:19:35.920Z,98.10
2022-12-29T03:22:05.579Z,98.10
2022-12-29T03:24:35.759Z,98.10
2022-12-29T03:27:05.270Z,98.00
2022-12-29T03:29:36.681Z,98.10
2022-12-29T03:32:05.599Z,98.10
2022-12-29T03:34:35.264Z,98.10
2022-12-29T03:37:07.455Z,98.10
2022-12-29T03:39:34.321Z,98.10
2022-12-29T03:42:05.098Z,98.20
2022-12-29T03:44:37.394Z,98.20
2022-12-29T03:47:04.661Z,98.30
2022-12-29T03:49:32.732Z,98.20
2022-12-29T03:51:59.472Z,98.20
2022-12-29T03:54:27.099Z,98.20
2022-12-29T03:56:53.844Z,98.20
2022-12-29T03:59:20.556Z,98.20
2022-12-29T04:01:47.404Z,98.10
2022-12-29T04:04:14.606Z,98.10
2022-12-29T04:06:42.765Z,98.10
2022-12-29T04:09:10.876Z,98.10
2022-12-29T04:11:37.656Z,98.20
2022-12-29T04:14:04.393Z,98.30
2022-12-29T04:16:31.272Z,98.20
2022-12-29T04:18:58.029Z,98.30
2022-12-29T04:21:24.837Z,98.80
2022-12-29T04:23:52.890Z,98.50
2022-12-29T04:26:19.702Z,98.50
2022-12-29T04:28:46.667Z,98.50
2022-12-29T04:31:13.440Z,98.50
2022-12-29T04:33:40.257Z,98.50
2022-12-29T04:36:07.504Z,98.50
2022-12-29T04:38:34.499Z,98.50
2022-12-29T04:41:03.116Z,98.50
2022-12-29T04:43:30.107Z,98.50
2022-12-29T04:45:56.955Z,98.50
2022-12-29T04:48:23.859Z,98.50
2022-12-29T04:50:50.811Z,98.50
2022-12-29T04:53:18.685Z,98.50
2022-12-29T04:55:48.930Z,98.60
2022-12-29T04:58:22.334Z,98.60
2022-12-29T05:00:49.639Z,98.60
2022-12-29T05:03:16.634Z,98.60
2022-12-29T05:05:45.212Z,98.60
2022-12-29T05:08:12.005Z,98.70
2022-12-29T05:10:38.725Z,98.70
2022-12-29T05:13:05.523Z,98.70
2022-12-29T05:15:33.572Z,98.70
2022-12-29T05:18:00.298Z,98.80
2022-12-29T05:20:27.149Z,98.70
2022-12-29T05:22:53.909Z,98.80
2022-12-29T05:25:20.655Z,98.80
2022-12-29T05:27:47.541Z,98.90
2022-12-29T05:30:14.275Z,98.90
2022-12-29T05:32:42.419Z,98.90
2022-12-29T05:35:09.793Z,98.90
2022-12-29T05:37:36.551Z,99.00
2022-12-29T05:40:04.033Z,98.90
2022-12-29T05:42:30.899Z,98.90
2022-12-29T05:44:57.987Z,99.00
2022-12-29T05:47:24.701Z,99.00
2022-12-29T05:49:52.810Z,98.90
2022-12-29T05:52:19.593Z,98.90
2022-12-29T05:54:46.342Z,98.90
2022-12-29T05:57:13.097Z,98.90
2022-12-29T05:59:39.814Z,98.90
2022-12-29T06:02:06.640Z,98.80
2022-12-29T06:04:34.088Z,98.80
2022-12-29T06:07:02.169Z,98.80
2022-12-29T06:09:28.896Z,98.70
2022-12-29T06:11:55.586Z,98.60
2022-12-29T06:14:22.347Z,99.00
2022-12-29T06:16:49.116Z,98.60
2022-12-29T06:19:15.950Z,98.60
2022-12-29T06:21:43.999Z,98.60
2022-12-29T06:24:12.105Z,98.60
2022-12-29T06:26:38.853Z,98.60
2022-12-29T06:29:05.630Z,98.60
2022-12-29T06:31:32.407Z,98.50
2022-12-29T06:34:01.318Z,98.60
2022-12-29T06:36:31.771Z,98.60
2022-12-29T06:38:58.494Z,98.60
2022-12-29T06:41:32.040Z,98.60
2022-12-29T06:43:59.263Z,98.70
2022-12-29T06:46:26.066Z,98.70
2022-12-29T06:48:52.884Z,98.60
2022-12-29T06:51:19.748Z,98.50
2022-12-29T06:53:46.452Z,98.40
2022-12-29T06:56:13.179Z,98.40
2022-12-29T06:58:41.347Z,98.40
2022-12-29T07:01:08.135Z,98.40
2022-12-29T07:03:34.937Z,98.50
2022-12-29T07:06:01.779Z,98.40
2022-12-29T07:08:28.507Z,98.40
2022-12-29T07:10:55.212Z,98.40
2022-12-29T07:13:21.964Z,98.50
2022-12-29T07:15:50.063Z,98.50
2022-12-29T07:18:16.771Z,98.50
2022-12-29T07:20:44.082Z,98.60
2022-12-29T07:23:10.951Z,98.60
2022-12-29T07:25:37.759Z,98.70
2022-12-29T07:28:05.048Z,98.70
2022-12-29T07:30:31.805Z,98.70
2022-12-29T07:32:59.929Z,98.80
2022-12-29T07:35:26.650Z,98.80
2022-12-29T07:37:53.347Z,98.90
2022-12-29T07:40:20.091Z,99.00
2022-12-29T07:42:46.814Z,99.10
2022-12-29T07:45:13.530Z,99.10
2022-12-29T07:47:40.325Z,99.60
2022-12-29T07:50:08.949Z,99.30
2022-12-29T07:52:35.665Z,99.40
2022-12-29T07:55:02.473Z,99.40
2022-12-29T07:57:31.990Z,99.80
2022-12-29T07:59:59.148Z,99.50
2022-12-29T08:02:26.174Z,99.60
2022-12-29T08:04:53.011Z,99.70
2022-12-29T08:07:21.166Z,99.70
2022-12-29T08:09:48.030Z,99.80
2022-12-29T08:12:14.781Z,99.80
2022-12-29T08:14:44.721Z,99.90
2022-12-29T08:17:11.435Z,99.90
2022-12-29T08:19:38.798Z,99.90
2022-12-29T08:22:05.510Z,99.90
2022-12-29T08:24:33.598Z,99.90
2022-12-29T08:27:06.913Z,99.90
2022-12-29T08:29:38.780Z,99.90
2022-12-29T08:32:05.533Z,99.90
2022-12-29T08:34:32.635Z,99.90
2022-12-29T08:36:59.415Z,99.90
2022-12-29T08:39:26.311Z,99.90
2022-12-29T08:41:54.469Z,99.90
2022-12-29T08:44:21.790Z,99.90
2022-12-29T08:46:48.562Z,99.90
2022-12-29T08:49:15.437Z,99.90
2022-12-29T08:51:42.182Z,99.90
2022-12-29T08:54:08.952Z,99.90
2022-12-29T08:56:35.664Z,99.90
2022-12-29T08:59:03.745Z,99.90
2022-12-29T09:01:30.598Z,99.90
2022-12-29T09:04:14.917Z,99.90
2022-12-29T09:06:42.918Z,99.90
2022-12-29T09:09:09.931Z,99.90
2022-12-29T09:11:36.696Z,99.90
2022-12-29T09:14:04.920Z,99.90
2022-12-29T09:16:31.868Z,99.90
2022-12-29T09:18:58.922Z,99.90
2022-12-29T09:21:25.678Z,99.90
2022-12-29T09:23:52.464Z,99.90
2022-12-29T09:26:19.201Z,99.90
2022-12-29T09:28:46.133Z,99.90
2022-12-29T09:31:15.025Z,99.90
2022-12-29T09:33:41.788Z,99.90
2022-12-29T09:36:09.695Z,99.90
2022-12-29T09:38:36.525Z,99.90
2022-12-29T09:41:13.759Z,99.90
2022-12-29T09:43:57.294Z,99.90
2022-12-29T09:46:27.895Z,99.90
2022-12-29T09:49:04.968Z,99.90
2022-12-29T09:51:33.621Z,99.90
2022-12-29T09:54:05.071Z,99.90
2022-12-29T09:56:31.804Z,99.90
2022-12-29T09:59:03.259Z,99.90
2022-12-29T10:01:35.085Z,99.90
2022-12-29T10:04:02.651Z,99.90
2022-12-29T10:06:45.512Z,99.90
2022-12-29T10:09:35.317Z,99.90
2022-12-29T10:12:17.604Z,99.90
2022-12-29T10:15:02.563Z,99.90
2022-12-29T10:18:05.244Z,99.90
2022-12-29T10:20:38.703Z,99.90
2022-12-29T10:23:20.002Z,99.90
2022-12-29T10:25:47.161Z,99.90
2022-12-29T10:28:22.077Z,99.90
2022-12-29T10:30:50.213Z,99.90
2022-12-29T10:33:21.133Z,99.90
2022-12-29T10:35:48.608Z,99.90
2022-12-29T10:38:23.819Z,99.90
2022-12-29T10:40:54.355Z,99.90
2022-12-29T10:43:25.899Z,99.90
2022-12-29T10:45:53.836Z,99.90
2022-12-29T10:48:30.061Z,99.90
2022-12-29T10:51:02.291Z,99.90
2022-12-29T10:53:36.280Z,99.90
2022-12-29T10:56:05.459Z,99.90
2022-12-29T10:58:32.213Z,99.90
2022-12-29T11:00:59.195Z,99.90
2022-12-29T11:03:44.215Z,99.90
2022-12-29T11:06:14.651Z,99.90
2022-12-29T11:08:49.081Z,99.90
2022-12-29T11:11:24.498Z,99.90
2022-12-29T11:13:56.431Z,99.90
2022-12-29T11:16:30.305Z,99.90
2022-12-29T11:18:58.809Z,99.90
2022-12-29T11:21:31.274Z,99.90
2022-12-29T11:23:59.764Z,99.90
2022-12-29T11:26:31.966Z,99.90
2022-12-29T11:29:21.877Z,99.90
2022-12-29T11:31:50.103Z,99.90
2022-12-29T11:34:23.068Z,99.90
2022-12-29T11:36:53.632Z,99.90
2022-12-29T11:39:29.991Z,99.90
2022-12-29T11:41:57.507Z,99.90
2022-12-29T11:44:24.964Z,99.90
2022-12-29T11:46:53.415Z,99.90
2022-12-29T11:49:24.550Z,99.90
2022-12-29T11:51:53.609Z,99.90
2022-12-29T11:54:23.651Z,99.90
2022-12-29T11:56:51.498Z,99.90
2022-12-29T11:59:41.876Z,99.90
2022-12-29T12:02:42.482Z,99.90
2022-12-29T12:05:23.012Z,99.90
2022-12-29T12:07:55.204Z,99.90
2022-12-29T12:10:27.591Z,99.90
2022-12-29T12:13:02.943Z,99.90
2022-12-29T12:15:39.166Z,99.90
2022-12-29T12:18:15.003Z,99.90
2022-12-29T12:20:50.851Z,99.90
2022-12-29T12:23:33.001Z,99.90
2022-12-29T12:26:05.188Z,99.90
2022-12-29T12:28:38.796Z,99.90
2022-12-29T12:31:12.172Z,99.90
2022-12-29T12:33:43.710Z,99.90
2022-12-29T12:36:38.427Z,99.90
2022-12-29T12:39:11.966Z,99.90
2022-12-29T12:41:48.115Z,99.90
2022-12-29T12:44:24.246Z,99.90
2022-12-29T12:47:08.824Z,99.90
2022-12-29T12:50:16.035Z,99.90
2022-12-29T12:52:59.567Z,99.90
2022-12-29T12:55:42.730Z,99.90
2022-12-29T12:58:19.720Z,99.90
2022-12-29T13:00:55.767Z,99.90
2022-12-29T13:03:32.479Z,99.90
2022-12-29T13:06:12.478Z,99.90
2022-12-29T13:09:22.001Z,99.90
2022-12-29T13:12:02.569Z,99.90
2022-12-29T13:14:42.251Z,99.90
2022-12-29T13:17:16.378Z,99.90
2022-12-29T13:19:49.153Z,99.90
2022-12-29T13:22:22.571Z,99.90
2022-12-29T13:25:11.583Z,99.90
2022-12-29T13:27:45.408Z,99.90
2022-12-29T13:30:16.650Z,99.90
2022-12-29T13:32:53.075Z,99.90
2022-12-29T13:35:38.122Z,99.90
2022-12-29T13:38:10.155Z,99.90
2022-12-29T13:40:44.535Z,99.90
2022-12-29T13:43:13.201Z,99.90
2022-12-29T13:45:41.574Z,99.90
2022-12-29T13:48:16.633Z,99.90
2022-12-29T13:50:48.460Z,99.90
2022-12-29T13:53:20.534Z,99.90
2022-12-29T13:55:55.125Z,99.90
2022-12-29T13:58:28.493Z,99.90
2022-12-29T14:01:01.637Z,99.90
2022-12-29T14:03:47.435Z,99.90
2022-12-29T14:06:21.568Z,99.90
2022-12-29T14:08:49.615Z,99.90
2022-12-29T14:11:20.969Z,99.90
2022-12-29T14:13:49.017Z,99.90
2022-12-29T14:16:28.391Z,99.90
2022-12-29T14:18:56.761Z,99.90
2022-12-29T14:21:26.171Z,99.90
2022-12-29T14:23:52.899Z,99.90
2022-12-29T14:26:35.234Z,99.90
2022-12-29T14:29:37.519Z,99.90
2022-12-29T14:32:37.532Z,99.90
2022-12-29T14:35:41.287Z,99.90
2022-12-29T14:38:19.794Z,99.90
2022-12-29T14:40:48.283Z,99.90
2022-12-29T14:43:22.348Z,99.90
2022-12-29T14:45:56.250Z,99.90
2022-12-29T14:48:39.017Z,99.90
2022-12-29T14:51:29.809Z,99.90
2022-12-29T14:53:56.522Z,99.90
2022-12-29T14:56:27.131Z,99.90
2022-12-29T14:58:58.256Z,99.90
2022-12-29T15:01:31.886Z,99.90
2022-12-29T15:04:01.549Z,99.90
2022-12-29T15:06:31.216Z,99.90
2022-12-29T15:09:04.268Z,99.90
2022-12-29T15:11:44.999Z,99.90
2022-12-29T15:14:49.501Z,99.90
2022-12-29T15:17:25.871Z,99.90
2022-12-29T15:19:53.082Z,99.90
2022-12-29T15:22:20.319Z,99.90
2022-12-29T15:24:47.243Z,99.90
2022-12-29T15:27:16.338Z,99.90
2022-12-29T15:29:46.891Z,99.90
2022-12-29T15:32:20.167Z,99.90
2022-12-29T15:34:48.533Z,99.90
2022-12-29T15:37:24.389Z,99.90
2022-12-29T15:39:52.091Z,99.90
2022-12-29T15:42:45.731Z,99.90
2022-12-29T15:45:15.280Z,99.90
2022-12-29T15:47:45.059Z,99.90
2022-12-29T15:50:22.251Z,99.90
2022-12-29T15:52:49.300Z,99.90
2022-12-29T15:55:22.284Z,99.90
2022-12-29T15:57:49.134Z,99.90
2022-12-29T16:00:25.685Z,99.90
2022-12-29T16:02:53.530Z,99.90
2022-12-29T16:05:20.778Z,99.90
2022-12-29T16:07:55.853Z,99.90
2022-12-29T16:10:28.174Z,99.90
2022-12-29T16:12:55.053Z,99.90
2022-12-29T16:15:21.975Z,99.90
2022-12-29T16:17:53.773Z,99.90
2022-12-29T16:20:23.224Z,99.90
2022-12-29T16:22:53.955Z,99.90
2022-12-29T16:25:25.496Z,99.90
2022-12-29T16:27:53.294Z,99.90
2022-12-29T16:30:26.561Z,99.90
2022-12-29T16:33:01.069Z,99.90
2022-12-29T16:35:29.182Z,99.90
2022-12-29T16:38:13.906Z,99.90
2022-12-29T16:40:51.053Z,99.90
2022-12-29T16:43:22.723Z,99.90
2022-12-29T16:46:17.633Z,99.90
2022-12-29T16:48:52.938Z,99.90
2022-12-29T16:51:25.551Z,99.90
2022-12-29T16:53:54.556Z,99.90
2022-12-29T16:56:23.977Z,99.90
2022-12-29T16:58:53.359Z,99.90
2022-12-29T17:01:20.632Z,99.90
2022-12-29T17:03:52.315Z,99.90
2022-12-29T17:06:21.105Z,99.90
2022-12-29T17:08:48.673Z,99.90
2022-12-29T17:11:28.393Z,99.90
2022-12-29T17:13:55.136Z,99.90
2022-12-29T17:16:21.883Z,99.90
2022-12-29T17:18:50.085Z,99.90
2022-12-29T17:21:16.790Z,99.90
2022-12-29T17:23:43.596Z,99.90
2022-12-29T17:26:11.685Z,99.90
2022-12-29T17:28:38.787Z,99.90
2022-12-29T17:31:07.496Z,99.90
2022-12-29T17:33:38.047Z,99.90
2022-12-29T17:36:06.778Z,99.90
2022-12-29T17:38:35.935Z,99.90
2022-12-29T17:41:02.877Z,99.90
2022-12-29T17:43:36.345Z,99.90
2022-12-29T17:46:06.957Z,99.90
2022-12-29T17:48:33.780Z,99.90
2022-12-29T17:51:00.538Z,99.90
2022-12-29T17:53:30.312Z,99.90
2022-12-29T17:55:57.144Z,99.90
2022-12-29T17:58:26.199Z,99.90
2022-12-29T18:00:55.480Z,99.90
2022-12-29T18:03:26.244Z,99.90
2022-12-29T18:05:53.686Z,99.90
2022-12-29T18:08:20.591Z,99.90
2022-12-29T18:10:50.811Z,99.90
2022-12-29T18:13:21.158Z,99.90
2022-12-29T18:15:48.437Z,99.90
2022-12-29T18:18:17.700Z,99.90
2022-12-29T18:20:46.255Z,99.90
2022-12-29T18:23:19.272Z,99.90
2022-12-29T18:25:51.812Z,99.90
2022-12-29T18:28:18.562Z,99.90
2022-12-29T18:30:45.914Z,99.90
2022-12-29T18:33:21.304Z,99.90
2022-12-29T18:35:55.126Z,99.90
2022-12-29T18:38:22.122Z,99.90
2022-12-29T18:40:50.539Z,99.90
2022-12-29T18:43:19.051Z,99.90
2022-12-29T18:45:46.509Z,99.90
2022-12-29T18:48:13.943Z,99.90
2022-12-29T18:50:41.020Z,99.90
2022-12-29T18:53:15.169Z,99.90
2022-12-29T18:55:42.000Z,99.90
2022-12-29T18:58:10.250Z,99.90
2022-12-29T19:00:39.803Z,99.90
2022-12-29T19:03:07.024Z,99.90
2022-12-29T19:05:37.686Z,99.90
2022-12-29T19:08:05.504Z,99.90
2022-12-29T19:10:32.716Z,99.90
2022-12-29T19:13:00.085Z,99.90
2022-12-29T19:15:31.667Z,99.90
2022-12-29T19:18:41.913Z,99.90
2022-12-29T19:20:50.733Z,99.90
2022-12-29T19:23:20.019Z,99.90
2022-12-29T19:25:47.719Z,99.90
2022-12-29T19:28:17.974Z,99.90
2022-12-29T19:30:52.289Z,99.90
2022-12-29T19:33:20.992Z,99.90
2022-12-29T19:35:48.836Z,99.90
2022-12-29T19:38:16.495Z,99.90
2022-12-29T19:40:44.713Z,99.90
2022-12-29T19:43:11.818Z,99.90
2022-12-29T19:45:39.361Z,99.90
2022-12-29T19:48:09.139Z,99.90
2022-12-29T19:50:36.042Z,99.90
2022-12-29T19:53:05.702Z,99.90
2022-12-29T19:55:32.964Z,99.90
2022-12-29T19:58:01.284Z,99.90
2022-12-29T20:00:28.263Z,99.90
2022-12-29T20:02:55.513Z,99.90
2022-12-29T20:05:24.432Z,99.90
2022-12-29T20:07:51.270Z,99.90
2022-12-29T20:10:18.430Z,99.90
2022-12-29T20:12:45.201Z,99.90
2022-12-29T20:15:12.432Z,99.90
2022-12-29T20:18:11.832Z,99.90
2022-12-29T20:20:27.487Z,99.90
2022-12-29T20:22:54.426Z,99.90
2022-12-29T20:28:08.258Z,99.90
2022-12-29T20:30:35.814Z,99.90
2022-12-29T20:33:07.790Z,99.90
2022-12-29T20:35:36.992Z,99.90
2022-12-29T20:38:04.374Z,99.90
2022-12-29T20:40:31.554Z,99.90
2022-12-29T20:42:58.496Z,99.90
2022-12-29T20:45:25.658Z,99.90
2022-12-29T20:47:52.636Z,99.90
2022-12-29T20:50:19.541Z,99.90
2022-12-29T20:52:47.823Z,99.90
2022-12-29T20:55:14.697Z,99.90
2022-12-29T21:00:28.896Z,99.90
2022-12-29T21:02:55.943Z,99.90
2022-12-29T21:05:24.416Z,99.90
2022-12-29T21:07:53.849Z,99.90
2022-12-29T21:10:21.502Z,99.90
2022-12-29T21:12:48.810Z,99.90
2022-12-29T21:15:15.796Z,99.90
2022-12-29T21:17:42.852Z,99.90
2022-12-29T21:20:11.749Z,99.90
2022-12-29T21:22:38.569Z,99.90
2022-12-29T21:25:07.416Z,99.90
2022-12-29T21:27:34.467Z,99.90
2022-12-29T21:30:01.426Z,99.90
2022-12-29T21:32:28.278Z,99.90
2022-12-29T21:34:55.199Z,99.90
2022-12-29T21:37:23.867Z,99.90
2022-12-29T21:39:51.012Z,99.90
2022-12-29T21:42:19.213Z,99.90
2022-12-29T21:44:46.479Z,99.90
2022-12-29T21:47:13.437Z,99.90
2022-12-29T21:49:40.336Z,99.90
2022-12-29T21:52:07.142Z,99.90
2022-12-29T21:54:34.196Z,99.90
2022-12-29T21:57:01.142Z,99.90
2022-12-29T21:59:29.357Z,99.90
2022-12-29T22:01:56.551Z,99.90
2022-12-29T22:04:25.487Z,99.90
2022-12-29T22:06:52.731Z,99.90
2022-12-29T22:09:19.695Z,99.90
2022-12-29T22:11:46.511Z,99.90
2022-12-29T22:14:13.731Z,99.90
2022-12-29T22:16:42.148Z,99.90
2022-12-29T22:19:09.108Z,99.90
2022-12-29T22:21:35.995Z,99.90
2022-12-29T22:24:02.882Z,99.90
2022-12-29T22:26:29.757Z,99.90
2022-12-29T22:28:57.920Z,99.90
2022-12-29T22:31:26.380Z,99.90
2022-12-29T22:33:55.930Z,99.90
2022-12-29T22:36:24.772Z,99.90
2022-12-29T22:38:51.735Z,99.90
2022-12-29T22:41:18.887Z,99.90
2022-12-29T22:43:45.918Z,99.90
2022-12-29T22:46:13.916Z,99.90
2022-12-29T22:48:41.045Z,99.90
2022-12-29T22:51:09.160Z,99.90
2022-12-29T22:53:37.038Z,99.90
2022-12-29T22:56:06.294Z,99.90
2022-12-29T22:58:33.183Z,99.90
2022-12-29T23:01:00.639Z,99.90
2022-12-29T23:03:28.892Z,99.90
2022-12-29T23:05:57.180Z,99.90
2022-12-29T23:08:25.480Z,99.90
2022-12-29T23:10:52.327Z,99.90
2022-12-29T23:13:19.342Z,99.90
2022-12-29T23:15:46.964Z,99.90
2022-12-29T23:18:14.060Z,99.90
2022-12-29T23:20:42.678Z,99.90
2022-12-29T23:23:09.759Z,99.90
2022-12-29T23:25:38.463Z,99.90
2022-12-29T23:28:07.287Z,99.90
2022-12-29T23:30:34.392Z,99.90
2022-12-29T23:33:01.137Z,99.90
2022-12-29T23:35:28.020Z,99.90
2022-12-29T23:37:54.759Z,99.90
2022-12-29T23:40:21.568Z,99.90
2022-12-29T23:42:49.712Z,99.90
2022-12-29T23:45:16.588Z,99.90
2022-12-29T23:47:43.357Z,99.90
2022-12-29T23:50:10.145Z,99.90
2022-12-29T23:52:36.874Z,99.90
2022-12-29T23:55:04.142Z,99.90
2022-12-29T23:57:30.895Z,99.90
2022-12-29T23:59:59.116Z,99.90
